sensor_id;sensor_type;location;lat;lon;timestamp;temperature;humidity
2565;DHT22;1292;48.020;7.822;2024-02-23T06:46:59;6.10;99.90
2565;DHT22;1292;48.020;7.822;2024-02-23T06:49:25;6.10;99.90
2565;DHT22;1292;48.020;7.822;2024-02-23T06:51:52;6.10;99.90
2565;DHT22;1292;48.020;7.822;2024-02-23T06:54:19;6.20;99.90
2565;DHT22;1292;48.020;7.822;2024-02-23T06:56:46;6.20;99.90
2565;DHT22;1292;48.020;7.822;2024-02-23T06:59:13;6.20;99.90
2565;DHT22;1292;48.020;7.822;2024-02-23T07:01:48;6.20;99.90
2565;DHT22;1292;48.020;7.822;2024-02-23T07:04:16;6.20;99.90
2565;DHT22;1292;48.020;7.822;2024-02-23T07:06:43;6.20;99.90
2565;DHT22;1292;48.020;7.822;2024-02-23T07:09:10;6.20;99.90
2565;DHT22;1292;48.020;7.822;2024-02-23T07:11:38;6.30;99.90
2565;DHT22;1292;48.020;7.822;2024-02-23T07:14:05;6.30;99.90
2565;DHT22;1292;48.020;7.822;2024-02-23T07:16:32;6.30;99.90
2565;DHT22;1292;48.020;7.822;2024-02-23T07:18:59;6.30;99.90
2565;DHT22;1292;48.020;7.822;2024-02-23T07:21:27;6.40;99.90
2565;DHT22;1292;48.020;7.822;2024-02-23T07:23:54;6.50;99.90
2565;DHT22;1292;48.020;7.822;2024-02-23T07:26:22;6.50;99.90
2565;DHT22;1292;48.020;7.822;2024-02-23T07:28:48;6.60;99.90
2565;DHT22;1292;48.020;7.822;2024-02-23T07:31:15;6.60;99.90
2565;DHT22;1292;48.020;7.822;2024-02-23T07:33:43;6.60;99.90
2565;DHT22;1292;48.020;7.822;2024-02-23T07:36:14;6.60;99.90
2565;DHT22;1292;48.020;7.822;2024-02-23T07:38:42;6.60;99.90
2565;DHT22;1292;48.020;7.822;2024-02-23T07:41:10;6.60;99.90
2565;DHT22;1292;48.020;7.822;2024-02-23T07:43:37;6.70;99.90
2565;DHT22;1292;48.020;7.822;2024-02-23T07:46:03;6.80;99.90
2565;DHT22;1292;48.020;7.822;2024-02-23T07:48:34;6.90;99.90
2565;DHT22;1292;48.020;7.822;2024-02-23T07:51:01;7.00;99.90
2565;DHT22;1292;48.020;7.822;2024-02-23T07:53:28;6.90;99.90
2565;DHT22;1292;48.020;7.822;2024-02-23T07:55:56;6.90;99.90
2565;DHT22;1292;48.020;7.822;2024-02-23T07:58:24;6.90;99.90
2565;DHT22;1292;48.020;7.822;2024-02-23T08:00:52;7.00;99.90
2565;DHT22;1292;48.020;7.822;2024-02-23T08:03:19;7.00;99.90
2565;DHT22;1292;48.020;7.822;2024-02-23T08:05:46;7.00;99.90
2565;DHT22;1292;48.020;7.822;2024-02-23T08:08:13;7.00;99.90
2565;DHT22;1292;48.020;7.822;2024-02-23T08:10:40;7.00;99.90
2565;DHT22;1292;48.020;7.822;2024-02-23T08:13:08;7.00;99.90
2565;DHT22;1292;48.020;7.822;2024-02-23T08:15:36;7.10;99.90
2565;DHT22;1292;48.020;7.822;2024-02-23T08:18:03;7.20;99.90
2565;DHT22;1292;48.020;7.822;2024-02-23T08:20:29;7.20;99.90
2565;DHT22;1292;48.020;7.822;2024-02-23T08:22:56;7.20;99.90
2565;DHT22;1292;48.020;7.822;2024-02-23T08:25:23;7.20;99.90
2565;DHT22;1292;48.020;7.822;2024-02-23T08:27:51;7.20;99.90
2565;DHT22;1292;48.020;7.822;2024-02-23T08:30:19;7.10;99.90
2565;DHT22;1292;48.020;7.822;2024-02-23T08:32:46;7.20;99.90
2565;DHT22;1292;48.020;7.822;2024-02-23T08:35:12;7.20;99.90
2565;DHT22;1292;48.020;7.822;2024-02-23T08:37:40;7.30;99.90
2565;DHT22;1292;48.020;7.822;2024-02-23T08:40:09;7.30;99.90
2565;DHT22;1292;48.020;7.822;2024-02-23T08:42:36;7.40;99.90
2565;DHT22;1292;48.020;7.822;2024-02-23T08:45:03;7.50;99.90
2565;DHT22;1292;48.020;7.822;2024-02-23T08:47:32;7.60;99.90
2565;DHT22;1292;48.020;7.822;2024-02-23T08:50:01;7.60;99.90
2565;DHT22;1292;48.020;7.822;2024-02-23T08:52:28;7.60;99.90
2565;DHT22;1292;48.020;7.822;2024-02-23T08:54:55;7.70;99.90
2565;DHT22;1292;48.020;7.822;2024-02-23T08:57:22;7.70;99.90
2565;DHT22;1292;48.020;7.822;2024-02-23T08:59:48;7.90;99.90
2565;DHT22;1292;48.020;7.822;2024-02-23T09:02:15;7.80;99.90
2565;DHT22;1292;48.020;7.822;2024-02-23T09:04:43;7.80;99.90
2565;DHT22;1292;48.020;7.822;2024-02-23T09:07:11;7.80;99.90
2565;DHT22;1292;48.020;7.822;2024-02-23T09:09:38;7.90;99.90
2565;DHT22;1292;48.020;7.822;2024-02-23T09:12:05;7.90;99.90
2565;DHT22;1292;48.020;7.822;2024-02-23T09:14:36;8.00;99.90
2565;DHT22;1292;48.020;7.822;2024-02-23T09:17:03;8.10;99.90
2565;DHT22;1292;48.020;7.822;2024-02-23T09:19:31;8.20;99.90
2565;DHT22;1292;48.020;7.822;2024-02-23T09:21:59;8.30;99.90
2565;DHT22;1292;48.020;7.822;2024-02-23T09:24:27;8.30;99.90
2565;DHT22;1292;48.020;7.822;2024-02-23T09:26:54;8.40;99.90
2565;DHT22;1292;48.020;7.822;2024-02-23T09:29:22;8.30;99.90
2565;DHT22;1292;48.020;7.822;2024-02-23T09:31:49;8.40;99.90
2565;DHT22;1292;48.020;7.822;2024-02-23T09:34:15;8.40;99.90
2565;DHT22;1292;48.020;7.822;2024-02-23T09:36:42;8.40;99.90
2565;DHT22;1292;48.020;7.822;2024-02-23T09:39:11;8.50;99.90
2565;DHT22;1292;48.020;7.822;2024-02-23T09:41:39;8.50;99.90
2565;DHT22;1292;48.020;7.822;2024-02-23T09:44:08;8.50;99.90
2565;DHT22;1292;48.020;7.822;2024-02-23T09:46:36;8.40;99.90
2565;DHT22;1292;48.020;7.822;2024-02-23T09:49:03;8.60;99.90
2565;DHT22;1292;48.020;7.822;2024-02-23T09:51:33;8.70;99.90
2565;DHT22;1292;48.020;7.822;2024-02-23T09:54:00;8.60;99.90
2565;DHT22;1292;48.020;7.822;2024-02-23T09:56:30;8.70;99.90
2565;DHT22;1292;48.020;7.822;2024-02-23T09:59:02;8.70;99.90
2565;DHT22;1292;48.020;7.822;2024-02-23T10:01:29;8.80;99.90
2565;DHT22;1292;48.020;7.822;2024-02-23T10:03:59;8.90;99.90
2565;DHT22;1292;48.020;7.822;2024-02-23T10:06:27;9.00;99.90
2565;DHT22;1292;48.020;7.822;2024-02-23T10:08:54;9.10;99.90
2565;DHT22;1292;48.020;7.822;2024-02-23T10:11:21;9.10;99.90
2565;DHT22;1292;48.020;7.822;2024-02-23T10:13:50;9.10;99.90
2565;DHT22;1292;48.020;7.822;2024-02-23T10:16:20;9.20;99.90
2565;DHT22;1292;48.020;7.822;2024-02-23T10:18:47;9.10;99.90
2565;DHT22;1292;48.020;7.822;2024-02-23T10:21:14;9.20;99.90
2565;DHT22;1292;48.020;7.822;2024-02-23T10:23:42;9.30;99.90
2565;DHT22;1292;48.020;7.822;2024-02-23T10:26:08;9.30;99.90
2565;DHT22;1292;48.020;7.822;2024-02-23T10:28:35;9.40;99.90
2565;DHT22;1292;48.020;7.822;2024-02-23T10:31:05;9.50;99.90
2565;DHT22;1292;48.020;7.822;2024-02-23T10:33:32;9.60;99.90
2565;DHT22;1292;48.020;7.822;2024-02-23T10:36:01;9.70;99.90
2565;DHT22;1292;48.020;7.822;2024-02-23T10:38:29;9.70;99.90
2565;DHT22;1292;48.020;7.822;2024-02-23T10:40:58;9.80;99.90
2565;DHT22;1292;48.020;7.822;2024-02-23T10:43:30;9.90;99.90
2565;DHT22;1292;48.020;7.822;2024-02-23T10:45:59;10.00;99.90
2565;DHT22;1292;48.020;7.822;2024-02-23T10:48:35;10.00;99.90
2565;DHT22;1292;48.020;7.822;2024-02-23T10:51:03;10.10;99.90
2565;DHT22;1292;48.020;7.822;2024-02-23T10:53:32;10.20;99.90
2565;DHT22;1292;48.020;7.822;2024-02-23T10:56:00;10.10;99.90
2565;DHT22;1292;48.020;7.822;2024-02-23T10:58:27;10.20;99.90
2565;DHT22;1292;48.020;7.822;2024-02-23T11:00:58;10.30;99.90
2565;DHT22;1292;48.020;7.822;2024-02-23T11:03:26;10.40;99.90
2565;DHT22;1292;48.020;7.822;2024-02-23T11:05:55;10.30;99.90
2565;DHT22;1292;48.020;7.822;2024-02-23T11:08:22;10.30;99.90
2565;DHT22;1292;48.020;7.822;2024-02-23T11:10:49;10.30;99.90
2565;DHT22;1292;48.020;7.822;2024-02-23T11:13:17;10.40;99.90
2565;DHT22;1292;48.020;7.822;2024-02-23T11:15:44;10.40;99.90
2565;DHT22;1292;48.020;7.822;2024-02-23T11:18:26;10.30;99.90
2565;DHT22;1292;48.020;7.822;2024-02-23T11:20:56;10.30;99.90
2565;DHT22;1292;48.020;7.822;2024-02-23T11:23:23;10.30;99.90
2565;DHT22;1292;48.020;7.822;2024-02-23T11:26:07;10.30;99.90
2565;DHT22;1292;48.020;7.822;2024-02-23T11:28:42;10.30;99.90
2565;DHT22;1292;48.020;7.822;2024-02-23T11:31:13;10.10;99.90
2565;DHT22;1292;48.020;7.822;2024-02-23T11:33:40;10.10;99.90
2565;DHT22;1292;48.020;7.822;2024-02-23T11:36:22;10.10;99.90
2565;DHT22;1292;48.020;7.822;2024-02-23T11:38:53;10.10;99.90
2565;DHT22;1292;48.020;7.822;2024-02-23T11:41:21;10.10;99.90
2565;DHT22;1292;48.020;7.822;2024-02-23T11:43:49;9.90;99.90
2565;DHT22;1292;48.020;7.822;2024-02-23T11:46:16;9.90;99.90
2565;DHT22;1292;48.020;7.822;2024-02-23T11:48:43;10.00;99.90
2565;DHT22;1292;48.020;7.822;2024-02-23T11:51:10;10.10;99.90
2565;DHT22;1292;48.020;7.822;2024-02-23T11:53:38;10.10;99.90
2565;DHT22;1292;48.020;7.822;2024-02-23T11:56:06;10.30;99.90
2565;DHT22;1292;48.020;7.822;2024-02-23T11:58:33;10.40;99.90
2565;DHT22;1292;48.020;7.822;2024-02-23T12:01:00;10.50;99.90
2565;DHT22;1292;48.020;7.822;2024-02-23T12:03:28;10.50;99.90
2565;DHT22;1292;48.020;7.822;2024-02-23T12:05:57;10.60;99.90
2565;DHT22;1292;48.020;7.822;2024-02-23T12:08:24;10.70;99.90
2565;DHT22;1292;48.020;7.822;2024-02-23T12:10:53;10.70;99.90
2565;DHT22;1292;48.020;7.822;2024-02-23T12:13:20;10.90;99.90
2565;DHT22;1292;48.020;7.822;2024-02-23T12:15:47;11.00;99.90
2565;DHT22;1292;48.020;7.822;2024-02-23T12:18:14;11.10;99.90
2565;DHT22;1292;48.020;7.822;2024-02-23T12:20:41;11.20;99.90
2565;DHT22;1292;48.020;7.822;2024-02-23T12:23:08;11.10;99.90
2565;DHT22;1292;48.020;7.822;2024-02-23T12:25:35;10.90;99.90
2565;DHT22;1292;48.020;7.822;2024-02-23T12:28:04;11.00;99.90
2565;DHT22;1292;48.020;7.822;2024-02-23T12:30:31;10.60;99.90
2565;DHT22;1292;48.020;7.822;2024-02-23T12:33:06;10.60;99.90
2565;DHT22;1292;48.020;7.822;2024-02-23T12:35:34;10.80;99.90
2565;DHT22;1292;48.020;7.822;2024-02-23T12:38:01;11.00;99.90
2565;DHT22;1292;48.020;7.822;2024-02-23T12:40:28;11.20;99.90
2565;DHT22;1292;48.020;7.822;2024-02-23T12:42:55;11.30;99.90
2565;DHT22;1292;48.020;7.822;2024-02-23T12:45:23;11.30;99.90
2565;DHT22;1292;48.020;7.822;2024-02-23T12:47:50;11.10;99.90
2565;DHT22;1292;48.020;7.822;2024-02-23T12:50:16;10.90;99.90
2565;DHT22;1292;48.020;7.822;2024-02-23T12:52:43;11.00;99.90
2565;DHT22;1292;48.020;7.822;2024-02-23T12:55:12;10.70;99.90
2565;DHT22;1292;48.020;7.822;2024-02-23T12:57:39;10.70;99.90
2565;DHT22;1292;48.020;7.822;2024-02-23T13:00:07;10.80;99.90
2565;DHT22;1292;48.020;7.822;2024-02-23T13:02:35;10.70;99.90
2565;DHT22;1292;48.020;7.822;2024-02-23T13:05:02;10.60;99.90
2565;DHT22;1292;48.020;7.822;2024-02-23T13:07:29;10.70;99.90
2565;DHT22;1292;48.020;7.822;2024-02-23T13:09:56;10.60;99.90
2565;DHT22;1292;48.020;7.822;2024-02-23T13:12:23;10.70;99.90
2565;DHT22;1292;48.020;7.822;2024-02-23T13:14:50;10.90;99.90
2565;DHT22;1292;48.020;7.822;2024-02-23T13:17:17;11.10;99.90
2565;DHT22;1292;48.020;7.822;2024-02-23T13:19:45;11.10;99.90
2565;DHT22;1292;48.020;7.822;2024-02-23T13:22:12;11.10;99.90
2565;DHT22;1292;48.020;7.822;2024-02-23T13:24:39;11.20;99.90
2565;DHT22;1292;48.020;7.822;2024-02-23T13:27:06;11.40;99.90
2565;DHT22;1292;48.020;7.822;2024-02-23T13:29:33;11.30;99.90
2565;DHT22;1292;48.020;7.822;2024-02-23T13:32:00;11.00;99.90
2565;DHT22;1292;48.020;7.822;2024-02-23T13:34:26;11.00;99.90
2565;DHT22;1292;48.020;7.822;2024-02-23T13:36:55;11.00;99.90
2565;DHT22;1292;48.020;7.822;2024-02-23T13:39:21;11.10;99.90
2565;DHT22;1292;48.020;7.822;2024-02-23T13:41:48;11.20;99.90
2565;DHT22;1292;48.020;7.822;2024-02-23T13:44:15;11.30;99.90
2565;DHT22;1292;48.020;7.822;2024-02-23T13:46:42;11.40;99.90
2565;DHT22;1292;48.020;7.822;2024-02-23T13:49:09;11.40;99.90
2565;DHT22;1292;48.020;7.822;2024-02-23T13:51:38;11.20;99.90
2565;DHT22;1292;48.020;7.822;2024-02-23T13:54:06;11.20;99.90
2565;DHT22;1292;48.020;7.822;2024-02-23T13:56:33;11.10;99.90
2565;DHT22;1292;48.020;7.822;2024-02-23T13:59:00;11.20;99.90
2565;DHT22;1292;48.020;7.822;2024-02-23T14:01:27;11.30;99.90
2565;DHT22;1292;48.020;7.822;2024-02-23T14:03:54;11.30;99.90
2565;DHT22;1292;48.020;7.822;2024-02-23T14:06:20;11.30;99.90
2565;DHT22;1292;48.020;7.822;2024-02-23T14:08:48;11.30;99.90
2565;DHT22;1292;48.020;7.822;2024-02-23T14:11:17;11.40;99.90
2565;DHT22;1292;48.020;7.822;2024-02-23T14:13:44;11.40;99.90
2565;DHT22;1292;48.020;7.822;2024-02-23T14:16:11;11.40;99.90
2565;DHT22;1292;48.020;7.822;2024-02-23T14:18:38;11.50;99.90
2565;DHT22;1292;48.020;7.822;2024-02-23T14:21:08;11.40;99.90
2565;DHT22;1292;48.020;7.822;2024-02-23T14:23:35;11.40;99.90
2565;DHT22;1292;48.020;7.822;2024-02-23T14:26:03;11.30;99.90
2565;DHT22;1292;48.020;7.822;2024-02-23T14:28:31;11.40;99.90
2565;DHT22;1292;48.020;7.822;2024-02-23T14:30:58;11.40;99.90
2565;DHT22;1292;48.020;7.822;2024-02-23T14:33:24;11.30;99.90
2565;DHT22;1292;48.020;7.822;2024-02-23T14:35:51;11.30;99.90
2565;DHT22;1292;48.020;7.822;2024-02-23T14:38:18;11.40;99.90
2565;DHT22;1292;48.020;7.822;2024-02-23T14:40:45;11.50;99.90
2565;DHT22;1292;48.020;7.822;2024-02-23T14:43:12;11.50;99.90
2565;DHT22;1292;48.020;7.822;2024-02-23T14:45:40;11.50;99.90
2565;DHT22;1292;48.020;7.822;2024-02-23T14:48:08;11.50;99.90
2565;DHT22;1292;48.020;7.822;2024-02-23T14:50:35;11.50;99.90
2565;DHT22;1292;48.020;7.822;2024-02-23T14:53:01;11.60;99.90
2565;DHT22;1292;48.020;7.822;2024-02-23T14:55:28;11.60;99.90
2565;DHT22;1292;48.020;7.822;2024-02-23T14:57:55;11.60;99.90
2565;DHT22;1292;48.020;7.822;2024-02-23T15:00:23;11.60;99.90
2565;DHT22;1292;48.020;7.822;2024-02-23T15:02:51;11.70;99.90
2565;DHT22;1292;48.020;7.822;2024-02-23T15:05:18;11.70;99.90
2565;DHT22;1292;48.020;7.822;2024-02-23T15:07:45;11.70;99.90
2565;DHT22;1292;48.020;7.822;2024-02-23T15:10:12;11.80;99.90
2565;DHT22;1292;48.020;7.822;2024-02-23T15:12:39;11.80;99.90
2565;DHT22;1292;48.020;7.822;2024-02-23T15:15:07;11.70;99.90
2565;DHT22;1292;48.020;7.822;2024-02-23T15:17:35;11.70;99.90
2565;DHT22;1292;48.020;7.822;2024-02-23T15:20:04;11.80;99.90
2565;DHT22;1292;48.020;7.822;2024-02-23T15:22:31;11.80;99.90
2565;DHT22;1292;48.020;7.822;2024-02-23T15:24:58;11.80;99.90
2565;DHT22;1292;48.020;7.822;2024-02-23T15:27:25;11.60;99.90
2565;DHT22;1292;48.020;7.822;2024-02-23T15:29:52;11.60;99.90
2565;DHT22;1292;48.020;7.822;2024-02-23T15:32:18;11.60;99.90
2565;DHT22;1292;48.020;7.822;2024-02-23T15:34:45;11.60;99.90
2565;DHT22;1292;48.020;7.822;2024-02-23T15:37:13;11.60;99.90
2565;DHT22;1292;48.020;7.822;2024-02-23T15:39:40;11.60;99.90
2565;DHT22;1292;48.020;7.822;2024-02-23T15:42:08;11.50;99.90
2565;DHT22;1292;48.020;7.822;2024-02-23T15:44:35;11.50;99.90
2565;DHT22;1292;48.020;7.822;2024-02-23T15:47:02;11.50;99.90
2565;DHT22;1292;48.020;7.822;2024-02-23T15:49:29;11.50;99.90
2565;DHT22;1292;48.020;7.822;2024-02-23T15:51:55;11.50;99.90
2565;DHT22;1292;48.020;7.822;2024-02-23T15:54:24;11.50;99.90
2565;DHT22;1292;48.020;7.822;2024-02-23T15:56:52;11.40;99.90
2565;DHT22;1292;48.020;7.822;2024-02-23T15:59:19;11.40;99.90
2565;DHT22;1292;48.020;7.822;2024-02-23T16:01:46;11.40;99.90
2565;DHT22;1292;48.020;7.822;2024-02-23T16:04:13;11.30;99.90
2565;DHT22;1292;48.020;7.822;2024-02-23T16:06:40;11.30;99.90
2565;DHT22;1292;48.020;7.822;2024-02-23T16:09:06;11.30;99.90
2565;DHT22;1292;48.020;7.822;2024-02-23T16:11:36;11.30;99.90
2565;DHT22;1292;48.020;7.822;2024-02-23T16:14:03;11.20;99.90
2565;DHT22;1292;48.020;7.822;2024-02-23T16:16:31;11.10;99.90
2565;DHT22;1292;48.020;7.822;2024-02-23T16:18:57;11.00;99.90
2565;DHT22;1292;48.020;7.822;2024-02-23T16:21:24;11.00;99.90
2565;DHT22;1292;48.020;7.822;2024-02-23T16:23:51;10.90;99.90
2565;DHT22;1292;48.020;7.822;2024-02-23T16:26:18;10.90;99.90
2565;DHT22;1292;48.020;7.822;2024-02-23T16:28:46;11.00;99.90
2565;DHT22;1292;48.020;7.822;2024-02-23T16:31:13;10.90;99.90
2565;DHT22;1292;48.020;7.822;2024-02-23T16:33:40;10.90;99.90
2565;DHT22;1292;48.020;7.822;2024-02-23T16:36:07;11.00;99.90
2565;DHT22;1292;48.020;7.822;2024-02-23T16:38:34;10.90;99.90
2565;DHT22;1292;48.020;7.822;2024-02-23T16:41:00;10.90;99.90
2565;DHT22;1292;48.020;7.822;2024-02-23T16:43:27;10.90;99.90
2565;DHT22;1292;48.020;7.822;2024-02-23T16:45:55;10.80;99.90
2565;DHT22;1292;48.020;7.822;2024-02-23T16:48:22;10.90;99.90
2565;DHT22;1292;48.020;7.822;2024-02-23T16:50:49;10.80;99.90
2565;DHT22;1292;48.020;7.822;2024-02-23T16:53:16;10.80;99.90
2565;DHT22;1292;48.020;7.822;2024-02-23T16:55:43;10.80;99.90
2565;DHT22;1292;48.020;7.822;2024-02-23T16:58:10;10.80;99.90
2565;DHT22;1292;48.020;7.822;2024-02-23T17:00:37;10.80;99.90
2565;DHT22;1292;48.020;7.822;2024-02-23T17:03:05;10.70;99.90
2565;DHT22;1292;48.020;7.822;2024-02-23T17:05:32;10.70;99.90
2565;DHT22;1292;48.020;7.822;2024-02-23T17:07:59;10.70;99.90
2565;DHT22;1292;48.020;7.822;2024-02-23T17:10:26;10.70;99.90
2565;DHT22;1292;48.020;7.822;2024-02-23T17:12:52;10.60;99.90
2565;DHT22;1292;48.020;7.822;2024-02-23T17:15:20;10.60;99.90
2565;DHT22;1292;48.020;7.822;2024-02-23T17:17:47;10.60;99.90
2565;DHT22;1292;48.020;7.822;2024-02-23T17:20:16;10.50;99.90
2565;DHT22;1292;48.020;7.822;2024-02-23T17:22:44;10.50;99.90
2565;DHT22;1292;48.020;7.822;2024-02-23T17:25:10;10.50;99.90
2565;DHT22;1292;48.020;7.822;2024-02-23T17:27:37;10.40;99.90
2565;DHT22;1292;48.020;7.822;2024-02-23T17:30:05;10.40;99.90
2565;DHT22;1292;48.020;7.822;2024-02-23T17:32:32;10.30;99.90
2565;DHT22;1292;48.020;7.822;2024-02-23T17:34:58;10.20;99.90
2565;DHT22;1292;48.020;7.822;2024-02-23T17:37:26;10.20;99.90
2565;DHT22;1292;48.020;7.822;2024-02-23T17:39:54;10.20;99.90
2565;DHT22;1292;48.020;7.822;2024-02-23T17:42:21;10.10;99.90
2565;DHT22;1292;48.020;7.822;2024-02-23T17:44:47;10.10;99.90
2565;DHT22;1292;48.020;7.822;2024-02-23T17:47:14;10.10;99.90
2565;DHT22;1292;48.020;7.822;2024-02-23T17:49:41;10.10;99.90
2565;DHT22;1292;48.020;7.822;2024-02-23T17:52:08;10.10;99.90
2565;DHT22;1292;48.020;7.822;2024-02-23T17:54:36;10.00;99.90
2565;DHT22;1292;48.020;7.822;2024-02-23T17:57:03;10.00;99.90
2565;DHT22;1292;48.020;7.822;2024-02-23T17:59:30;9.90;99.90
2565;DHT22;1292;48.020;7.822;2024-02-23T18:01:57;9.90;99.90
2565;DHT22;1292;48.020;7.822;2024-02-23T18:04:24;9.90;99.90
2565;DHT22;1292;48.020;7.822;2024-02-23T18:06:50;9.80;99.90
2565;DHT22;1292;48.020;7.822;2024-02-23T18:09:19;9.70;99.90
2565;DHT22;1292;48.020;7.822;2024-02-23T18:11:47;9.70;99.90
2565;DHT22;1292;48.020;7.822;2024-02-23T18:14:14;9.60;99.90
2565;DHT22;1292;48.020;7.822;2024-02-23T18:16:42;9.60;99.90
2565;DHT22;1292;48.020;7.822;2024-02-23T18:19:09;9.60;99.90
2565;DHT22;1292;48.020;7.822;2024-02-23T18:21:36;9.40;99.90
2565;DHT22;1292;48.020;7.822;2024-02-23T18:24:04;9.40;99.90
2565;DHT22;1292;48.020;7.822;2024-02-23T18:26:31;9.30;99.90
2565;DHT22;1292;48.020;7.822;2024-02-23T18:28:59;9.30;99.90
2565;DHT22;1292;48.020;7.822;2024-02-23T18:31:26;9.20;99.90
2565;DHT22;1292;48.020;7.822;2024-02-23T18:33:53;9.20;99.90
2565;DHT22;1292;48.020;7.822;2024-02-23T18:36:20;9.20;99.90
2565;DHT22;1292;48.020;7.822;2024-02-23T18:38:47;8.90;99.90
2565;DHT22;1292;48.020;7.822;2024-02-23T18:41:14;8.80;99.90
2565;DHT22;1292;48.020;7.822;2024-02-23T18:43:41;8.70;99.90
2565;DHT22;1292;48.020;7.822;2024-02-23T18:46:09;8.60;99.90
2565;DHT22;1292;48.020;7.822;2024-02-23T18:48:38;8.60;99.90
2565;DHT22;1292;48.020;7.822;2024-02-23T18:51:05;8.60;99.90
2565;DHT22;1292;48.020;7.822;2024-02-23T18:53:33;8.60;99.90
2565;DHT22;1292;48.020;7.822;2024-02-23T18:56:00;8.60;99.90
2565;DHT22;1292;48.020;7.822;2024-02-23T18:58:30;8.70;99.90
2565;DHT22;1292;48.020;7.822;2024-02-23T19:00:57;8.70;99.90
2565;DHT22;1292;48.020;7.822;2024-02-23T19:03:25;8.70;99.90
2565;DHT22;1292;48.020;7.822;2024-02-23T19:05:52;8.70;99.90
2565;DHT22;1292;48.020;7.822;2024-02-23T19:08:19;8.80;99.90
2565;DHT22;1292;48.020;7.822;2024-02-23T19:10:46;8.80;99.90
2565;DHT22;1292;48.020;7.822;2024-02-23T19:13:13;8.90;99.90
2565;DHT22;1292;48.020;7.822;2024-02-23T19:15:39;8.90;99.90
2565;DHT22;1292;48.020;7.822;2024-02-23T19:18:09;8.90;99.90
2565;DHT22;1292;48.020;7.822;2024-02-23T19:20:37;9.00;99.90
2565;DHT22;1292;48.020;7.822;2024-02-23T19:23:04;9.00;99.90
2565;DHT22;1292;48.020;7.822;2024-02-23T19:25:31;9.00;99.90
2565;DHT22;1292;48.020;7.822;2024-02-23T19:27:58;9.00;99.90
2565;DHT22;1292;48.020;7.822;2024-02-23T19:30:25;9.00;99.90
2565;DHT22;1292;48.020;7.822;2024-02-23T19:32:51;9.00;99.90
2565;DHT22;1292;48.020;7.822;2024-02-23T19:35:18;9.00;99.90
2565;DHT22;1292;48.020;7.822;2024-02-23T19:37:46;9.00;99.90
2565;DHT22;1292;48.020;7.822;2024-02-23T19:40:13;8.90;99.90
2565;DHT22;1292;48.020;7.822;2024-02-23T19:42:47;8.90;99.90
2565;DHT22;1292;48.020;7.822;2024-02-23T19:45:13;8.90;99.90
2565;DHT22;1292;48.020;7.822;2024-02-23T19:47:40;8.90;99.90
2565;DHT22;1292;48.020;7.822;2024-02-23T19:50:08;8.80;99.90
2565;DHT22;1292;48.020;7.822;2024-02-23T19:52:35;8.80;99.90
2565;DHT22;1292;48.020;7.822;2024-02-23T19:55:03;8.70;99.90
2565;DHT22;1292;48.020;7.822;2024-02-23T19:57:31;8.60;99.90
2565;DHT22;1292;48.020;7.822;2024-02-23T19:59:58;8.60;99.90
2565;DHT22;1292;48.020;7.822;2024-02-23T20:02:25;8.60;99.90
2565;DHT22;1292;48.020;7.822;2024-02-23T20:04:53;8.50;99.90
2565;DHT22;1292;48.020;7.822;2024-02-23T20:07:20;8.50;99.90
2565;DHT22;1292;48.020;7.822;2024-02-23T20:09:48;8.40;99.90
2565;DHT22;1292;48.020;7.822;2024-02-23T20:12:16;8.30;99.90
2565;DHT22;1292;48.020;7.822;2024-02-23T20:14:44;8.30;99.90
2565;DHT22;1292;48.020;7.822;2024-02-23T20:17:11;8.20;99.90
2565;DHT22;1292;48.020;7.822;2024-02-23T20:19:38;8.20;99.90
2565;DHT22;1292;48.020;7.822;2024-02-23T20:22:05;8.10;99.90
2565;DHT22;1292;48.020;7.822;2024-02-23T20:24:32;8.10;99.90
2565;DHT22;1292;48.020;7.822;2024-02-23T20:26:59;8.00;99.90
2565;DHT22;1292;48.020;7.822;2024-02-23T20:29:28;8.00;99.90
2565;DHT22;1292;48.020;7.822;2024-02-23T20:31:55;8.00;99.90
2565;DHT22;1292;48.020;7.822;2024-02-23T20:34:21;7.90;99.90
2565;DHT22;1292;48.020;7.822;2024-02-23T20:36:48;8.00;99.90
2565;DHT22;1292;48.020;7.822;2024-02-23T20:39:15;8.00;99.90
2565;DHT22;1292;48.020;7.822;2024-02-23T20:41:42;7.90;99.90
2565;DHT22;1292;48.020;7.822;2024-02-23T20:44:09;7.80;99.90
2565;DHT22;1292;48.020;7.822;2024-02-23T20:46:37;7.70;99.90
2565;DHT22;1292;48.020;7.822;2024-02-23T20:49:05;7.50;99.90
2565;DHT22;1292;48.020;7.822;2024-02-23T20:51:32;7.40;99.90
2565;DHT22;1292;48.020;7.822;2024-02-23T20:53:58;7.40;99.90
2565;DHT22;1292;48.020;7.822;2024-02-23T20:56:25;7.30;99.90
2565;DHT22;1292;48.020;7.822;2024-02-23T20:58:56;7.40;99.90
2565;DHT22;1292;48.020;7.822;2024-02-23T21:01:23;7.40;99.90
2565;DHT22;1292;48.020;7.822;2024-02-23T21:03:51;7.50;99.90
2565;DHT22;1292;48.020;7.822;2024-02-23T21:06:17;7.50;99.90
2565;DHT22;1292;48.020;7.822;2024-02-23T21:08:44;7.50;99.90
2565;DHT22;1292;48.020;7.822;2024-02-23T21:11:11;7.60;99.90
2565;DHT22;1292;48.020;7.822;2024-02-23T21:13:40;7.70;99.90
2565;DHT22;1292;48.020;7.822;2024-02-23T21:16:06;7.70;99.90
2565;DHT22;1292;48.020;7.822;2024-02-23T21:18:33;7.70;99.90
2565;DHT22;1292;48.020;7.822;2024-02-23T21:21:02;7.80;99.90
2565;DHT22;1292;48.020;7.822;2024-02-23T21:23:28;7.80;99.90
2565;DHT22;1292;48.020;7.822;2024-02-23T21:25:56;7.70;99.90
2565;DHT22;1292;48.020;7.822;2024-02-23T21:28:22;7.80;99.90
2565;DHT22;1292;48.020;7.822;2024-02-23T21:30:49;7.80;99.90
2565;DHT22;1292;48.020;7.822;2024-02-23T21:33:20;7.90;99.90
2565;DHT22;1292;48.020;7.822;2024-02-23T21:35:47;7.90;99.90
2565;DHT22;1292;48.020;7.822;2024-02-23T21:38:15;7.90;99.90
2565;DHT22;1292;48.020;7.822;2024-02-23T21:40:42;7.90;99.90
2565;DHT22;1292;48.020;7.822;2024-02-23T21:43:09;7.90;99.90
2565;DHT22;1292;48.020;7.822;2024-02-23T21:45:36;8.00;99.90
2565;DHT22;1292;48.020;7.822;2024-02-23T21:48:03;8.00;99.90
2565;DHT22;1292;48.020;7.822;2024-02-23T21:50:30;8.10;99.90
2565;DHT22;1292;48.020;7.822;2024-02-23T21:52:58;8.10;99.90
2565;DHT22;1292;48.020;7.822;2024-02-23T21:55:27;8.10;99.90
2565;DHT22;1292;48.020;7.822;2024-02-23T21:57:53;8.10;99.90
2565;DHT22;1292;48.020;7.822;2024-02-23T22:00:20;8.10;99.90
2565;DHT22;1292;48.020;7.822;2024-02-23T22:02:47;8.10;99.90
2565;DHT22;1292;48.020;7.822;2024-02-23T22:05:14;8.10;99.90
2565;DHT22;1292;48.020;7.822;2024-02-23T22:07:41;8.20;99.90
2565;DHT22;1292;48.020;7.822;2024-02-23T22:10:08;8.20;99.90
2565;DHT22;1292;48.020;7.822;2024-02-23T22:12:36;8.20;99.90
2565;DHT22;1292;48.020;7.822;2024-02-23T22:15:04;8.20;99.90
2565;DHT22;1292;48.020;7.822;2024-02-23T22:17:31;8.20;99.90
2565;DHT22;1292;48.020;7.822;2024-02-23T22:19:58;8.20;99.90
2565;DHT22;1292;48.020;7.822;2024-02-23T22:22:24;8.10;99.90
2565;DHT22;1292;48.020;7.822;2024-02-23T22:24:53;8.20;99.90
2565;DHT22;1292;48.020;7.822;2024-02-23T22:27:25;8.10;99.90
2565;DHT22;1292;48.020;7.822;2024-02-23T22:29:54;8.10;99.90
2565;DHT22;1292;48.020;7.822;2024-02-23T22:32:20;8.10;99.90
2565;DHT22;1292;48.020;7.822;2024-02-23T22:34:47;8.10;99.90
2565;DHT22;1292;48.020;7.822;2024-02-23T22:37:14;8.10;99.90
2565;DHT22;1292;48.020;7.822;2024-02-23T22:39:41;8.10;99.90
